Time;durP1;ratioP1;P1;durP2;ratioP2;P2;SDS_P1;SDS_P2;PMS_P1;PMS_P2;Temp;Humidity;BMP_temperature;BMP_pressure;BME280_temperature;BME280_humidity;BME280_pressure;Samples;Min_cycle;Max_cycle;Signal;HPM_P1;HPM_P2
2023/10/26 00:01:28;;;;;;;33.37;19.00;;;;;;;17.73;83.30;96180.13;4972335;28;20673;-72
2023/10/26 00:03:55;;;;;;;32.17;19.33;;;;;;;17.70;83.87;96196.09;4988727;28;20209;-73
2023/10/26 00:06:22;;;;;;;38.03;20.10;;;;;;;17.68;83.82;96207.69;4988985;28;20231;-70
2023/10/26 00:08:50;;;;;;;34.33;19.67;;;;;;;17.79;83.58;96200.56;4988759;28;20256;-73
2023/10/26 00:11:17;;;;;;;28.47;18.43;;;;;;;17.56;83.59;96161.63;4988525;28;20689;-74
2023/10/26 00:13:47;;;;;;;31.33;18.23;;;;;;;17.82;83.02;96178.50;4971582;28;20840;-70
2023/10/26 00:16:15;;;;;;;35.77;18.20;;;;;;;17.61;82.94;96155.03;4972693;28;20284;-72
2023/10/26 00:18:42;;;;;;;32.03;18.60;;;;;;;17.51;83.91;96154.19;4989026;28;20194;-67
2023/10/26 00:21:10;;;;;;;37.23;18.43;;;;;;;17.31;84.81;96178.59;4988009;28;20282;-71
2023/10/26 00:23:37;;;;;;;31.20;18.63;;;;;;;17.29;85.55;96167.41;4989151;28;20202;-75
2023/10/26 00:26:04;;;;;;;35.33;19.00;;;;;;;17.48;84.50;96169.28;4970844;28;20231;-72
2023/10/26 00:28:31;;;;;;;30.93;17.37;;;;;;;17.62;84.02;96166.34;4988125;28;20268;-73
2023/10/26 00:30:58;;;;;;;28.73;17.50;;;;;;;17.63;83.89;96166.19;4989117;28;20312;-70
2023/10/26 00:33:26;;;;;;;38.23;19.50;;;;;;;17.52;83.71;96176.78;4987848;28;20215;-75
2023/10/26 00:35:54;;;;;;;26.60;16.87;;;;;;;17.42;84.42;96180.28;4987794;28;20196;-72
2023/10/26 00:38:21;;;;;;;28.83;17.00;;;;;;;17.32;84.61;96185.50;4970054;28;20194;-76
2023/10/26 00:40:48;;;;;;;29.97;19.13;;;;;;;17.23;84.82;96170.56;4971045;28;20206;-73
2023/10/26 00:43:24;;;;;;;34.60;17.90;;;;;;;16.83;85.26;96123.47;4970534;28;20228;-77
2023/10/26 00:45:52;;;;;;;35.47;17.90;;;;;;;17.36;84.72;96176.41;4970546;28;20215;-74
2023/10/26 00:48:20;;;;;;;30.83;17.77;;;;;;;17.24;84.61;96172.25;4988602;28;20279;-73
2023/10/26 00:50:48;;;;;;;33.37;17.17;;;;;;;16.69;86.57;96168.22;4987266;28;20193;-74
2023/10/26 00:53:17;;;;;;;31.80;17.73;;;;;;;16.42;88.68;96175.75;4988384;28;20319;-73
2023/10/26 00:55:48;;;;;;;33.07;17.37;;;;;;;16.23;89.80;96158.13;4969786;28;20233;-74
2023/10/26 00:58:17;;;;;;;33.27;16.03;;;;;;;15.88;92.08;96144.50;4954583;28;20792;-71
2023/10/26 01:00:44;;;;;;;26.50;15.57;;;;;;;15.93;92.64;96159.81;4988019;28;20200;-75
2023/10/26 01:03:13;;;;;;;32.60;15.63;;;;;;;16.11;92.42;96168.75;4987442;28;20192;-74
2023/10/26 01:05:41;;;;;;;32.33;16.13;;;;;;;16.26;91.54;96173.53;4988021;28;20667;-74
2023/10/26 01:08:08;;;;;;;32.97;15.50;;;;;;;16.13;91.89;96162.47;4986880;28;20207;-70
2023/10/26 01:10:36;;;;;;;28.70;16.30;;;;;;;16.36;90.86;96178.88;4988607;28;20760;-72
2023/10/26 01:13:04;;;;;;;31.50;15.77;;;;;;;16.49;90.58;96173.44;4987614;28;20204;-71
2023/10/26 01:15:31;;;;;;;32.87;16.10;;;;;;;16.67;89.90;96164.13;4988820;28;20187;-70
2023/10/26 01:17:58;;;;;;;30.33;15.97;;;;;;;16.64;89.05;96180.03;4988182;28;20196;-71
2023/10/26 01:20:26;;;;;;;27.03;15.30;;;;;;;16.74;88.00;96184.38;4987396;28;20217;-72
2023/10/26 01:22:53;;;;;;;28.47;14.83;;;;;;;16.54;87.95;96171.31;4987955;28;20216;-73
2023/10/26 01:25:20;;;;;;;32.13;15.17;;;;;;;16.49;89.21;96189.97;4969422;28;20254;-68
2023/10/26 01:27:48;;;;;;;35.93;15.67;;;;;;;16.23;90.90;96181.66;4988080;28;20649;-72
2023/10/26 01:30:16;;;;;;;32.47;17.77;;;;;;;15.87;93.11;96165.50;4969260;28;20184;-74
2023/10/26 01:32:44;;;;;;;29.67;16.93;;;;;;;15.79;94.75;96160.91;4970510;28;20237;-71
2023/10/26 01:35:13;;;;;;;35.63;16.57;;;;;;;15.77;95.98;96147.16;4987093;28;20672;-69
2023/10/26 01:37:40;;;;;;;33.27;16.63;;;;;;;15.77;96.04;96151.53;4987287;28;20667;-72
2023/10/26 01:40:09;;;;;;;32.70;16.83;;;;;;;15.88;96.07;96168.00;4970123;28;20205;-69
2023/10/26 01:42:36;;;;;;;31.27;16.53;;;;;;;16.00;95.58;96166.19;4986956;28;20199;-71
2023/10/26 01:45:04;;;;;;;41.07;18.23;;;;;;;16.05;94.79;96185.75;4970628;28;20192;-73
2023/10/26 01:47:31;;;;;;;35.13;16.90;;;;;;;15.76;95.30;96153.34;4969033;28;20291;-74
2023/10/26 01:49:59;;;;;;;30.27;17.23;;;;;;;15.83;95.42;96171.91;4970077;28;20693;-69
2023/10/26 01:52:31;;;;;;;33.87;17.57;;;;;;;16.05;94.38;96170.06;4990970;28;20198;-72
2023/10/26 01:54:58;;;;;;;29.83;15.93;;;;;;;16.29;93.17;96178.53;4973707;28;20197;-74
2023/10/26 01:57:25;;;;;;;30.23;14.87;;;;;;;16.56;91.36;96185.06;4957612;28;20195;-70
2023/10/26 01:59:55;;;;;;;29.07;14.30;;;;;;;16.55;90.70;96191.28;4973175;28;20258;-73
2023/10/26 02:02:23;;;;;;;30.30;13.40;;;;;;;16.62;89.78;96179.34;4974264;28;20287;-70
2023/10/26 02:04:51;;;;;;;31.60;13.90;;;;;;;16.62;89.33;96187.19;4972892;28;20189;-72
2023/10/26 02:07:18;;;;;;;30.83;14.33;;;;;;;16.52;89.92;96187.13;4991501;28;20281;-70
2023/10/26 02:09:45;;;;;;;29.93;13.73;;;;;;;16.51;90.22;96192.47;4989420;28;20683;-68
2023/10/26 02:12:14;;;;;;;24.73;13.63;;;;;;;16.44;89.90;96186.06;4973842;28;20583;-70
2023/10/26 02:14:41;;;;;;;26.33;12.77;;;;;;;16.68;88.85;96181.44;4973962;28;20199;-69
2023/10/26 02:17:10;;;;;;;23.43;12.97;;;;;;;16.72;88.48;96172.38;4990358;28;20196;-68
2023/10/26 02:19:38;;;;;;;23.40;11.90;;;;;;;16.72;88.34;96169.75;4991207;28;20194;-69
2023/10/26 02:22:06;;;;;;;22.37;12.27;;;;;;;16.72;87.09;96164.53;4990407;28;20193;-69
2023/10/26 02:24:35;;;;;;;29.07;12.17;;;;;;;16.86;86.07;96172.03;4989873;28;20676;-70
2023/10/26 02:27:03;;;;;;;27.87;12.67;;;;;;;16.80;85.55;96177.78;4972778;28;20224;-71
2023/10/26 02:29:32;;;;;;;25.77;12.40;;;;;;;16.82;85.38;96178.50;4973318;28;20209;-75
2023/10/26 02:31:59;;;;;;;23.37;11.20;;;;;;;16.87;85.28;96178.94;4973238;28;20232;-72
2023/10/26 02:34:27;;;;;;;22.67;11.23;;;;;;;16.74;84.89;96170.47;4972632;28;20700;-70
2023/10/26 02:36:57;;;;;;;29.93;11.23;;;;;;;16.72;85.00;96178.44;4957510;28;20198;-74
2023/10/26 02:39:25;;;;;;;22.77;11.43;;;;;;;16.61;85.81;96178.50;4989727;28;20302;-73
2023/10/26 02:41:53;;;;;;;25.43;11.30;;;;;;;16.50;86.63;96185.59;4990910;28;20255;-69
2023/10/26 02:44:20;;;;;;;22.40;11.10;;;;;;;16.46;87.31;96184.16;4990064;28;20256;-70
2023/10/26 02:46:47;;;;;;;26.63;10.77;;;;;;;16.57;86.74;96181.53;4972832;28;20391;-70
2023/10/26 02:49:15;;;;;;;27.00;11.87;;;;;;;16.55;86.16;96152.06;4972846;28;20606;-71
2023/10/26 02:51:42;;;;;;;26.60;11.93;;;;;;;16.67;85.76;96166.72;4972607;28;20215;-70
2023/10/26 02:54:10;;;;;;;24.00;10.47;;;;;;;16.89;85.30;96170.03;4990704;28;20221;-71
2023/10/26 02:56:37;;;;;;;20.03;12.00;;;;;;;16.76;85.97;96150.25;4971665;28;20236;-70
2023/10/26 02:59:04;;;;;;;29.00;11.67;;;;;;;16.81;85.70;96153.31;4990507;28;20281;-70
2023/10/26 03:01:33;;;;;;;25.17;12.53;;;;;;;16.25;86.18;96105.75;4989039;28;20223;-72
2023/10/26 03:04:04;;;;;;;23.10;10.90;;;;;;;16.27;87.94;96156.09;4972475;28;20219;-76
2023/10/26 03:06:39;;;;;;;25.43;12.13;;;;;;;16.30;87.17;96154.06;4990089;28;20223;-76
2023/10/26 03:09:08;;;;;;;25.90;12.83;;;;;;;16.10;88.22;96151.41;4972183;28;20188;-71
2023/10/26 03:11:36;;;;;;;21.83;12.27;;;;;;;15.80;89.52;96149.53;4972792;28;20226;-71
2023/10/26 03:14:04;;;;;;;22.67;11.57;;;;;;;15.71;90.63;96138.97;4989163;28;20278;-71
2023/10/26 03:16:32;;;;;;;24.33;11.83;;;;;;;15.84;90.32;96131.81;4971675;28;20201;-74
2023/10/26 03:19:00;;;;;;;24.80;12.23;;;;;;;16.15;89.45;96157.94;4987341;28;20211;-69
2023/10/26 03:21:28;;;;;;;27.57;12.60;;;;;;;15.89;89.78;96158.41;4972459;28;20731;-68
2023/10/26 03:23:55;;;;;;;28.83;12.27;;;;;;;15.71;91.83;96160.69;4989704;28;20763;-70
2023/10/26 03:26:23;;;;;;;29.17;12.43;;;;;;;15.59;92.61;96158.22;4971414;28;20310;-69
2023/10/26 03:28:52;;;;;;;26.90;12.43;;;;;;;15.85;92.33;96180.47;4972040;28;20250;-71
2023/10/26 03:31:19;;;;;;;26.20;11.60;;;;;;;15.89;91.17;96168.84;4970727;28;20238;-68
2023/10/26 03:33:47;;;;;;;28.63;11.93;;;;;;;15.71;91.91;96171.13;4989559;28;20288;-68
2023/10/26 03:36:19;;;;;;;25.83;12.40;;;;;;;15.75;91.81;96161.28;4971297;28;20282;-69
2023/10/26 03:38:49;;;;;;;29.20;13.37;;;;;;;15.74;92.06;96159.63;4973852;28;20197;-69
2023/10/26 03:41:18;;;;;;;24.60;12.20;;;;;;;15.71;92.23;96165.91;4982511;28;20191;-68
2023/10/26 03:43:48;;;;;;;22.97;12.03;;;;;;;15.52;92.75;96147.44;4988460;28;20687;-68
2023/10/26 03:46:15;;;;;;;33.33;12.33;;;;;;;15.57;93.34;96160.97;4989200;28;20272;-72
2023/10/26 03:48:44;;;;;;;26.37;13.23;;;;;;;15.63;92.38;96162.25;4973457;28;20296;-77
2023/10/26 03:51:13;;;;;;;26.97;11.07;;;;;;;15.23;93.49;96107.97;4979815;28;20195;-71
2023/10/26 03:53:41;;;;;;;36.40;11.90;;;;;;;15.47;93.96;96149.59;4962798;28;20246;-76
2023/10/26 03:56:08;;;;;;;23.77;13.47;;;;;;;15.45;94.67;96154.13;4972240;28;20291;-75
2023/10/26 03:58:36;;;;;;;28.20;11.50;;;;;;;15.17;95.50;96138.91;4967881;28;20208;-68
2023/10/26 04:01:05;;;;;;;27.37;11.93;;;;;;;15.19;96.38;96163.09;4948834;28;20251;-69
2023/10/26 04:03:32;;;;;;;26.23;12.07;;;;;;;15.19;96.69;96163.09;4968066;28;20200;-74
2023/10/26 04:06:00;;;;;;;34.10;12.67;;;;;;;15.50;95.61;96183.28;4967676;28;20216;-70
2023/10/26 04:08:32;;;;;;;26.63;11.70;;;;;;;15.76;93.53;96166.38;4967647;28;20243;-71
2023/10/26 04:11:00;;;;;;;30.77;12.13;;;;;;;15.71;92.55;96160.69;4966833;28;20189;-70
2023/10/26 04:13:30;;;;;;;24.83;12.30;;;;;;;15.60;92.58;96137.22;4966196;28;20205;-68
2023/10/26 04:16:03;;;;;;;26.00;11.53;;;;;;;15.74;92.73;96170.06;4969364;28;20223;-71
2023/10/26 04:18:31;;;;;;;31.97;13.63;;;;;;;15.67;92.84;96168.88;4968415;28;20196;-72
2023/10/26 04:20:58;;;;;;;27.23;11.57;;;;;;;15.48;94.08;96153.84;4968073;28;20556;-70
2023/10/26 04:23:26;;;;;;;20.20;11.13;;;;;;;15.26;95.16;96118.19;4966839;28;20207;-69
2023/10/26 04:25:54;;;;;;;28.17;11.87;;;;;;;15.27;95.96;96132.06;4969670;28;20195;-69
2023/10/26 04:28:21;;;;;;;24.90;11.63;;;;;;;15.20;96.36;96112.63;4968417;28;20262;-70
2023/10/26 04:30:49;;;;;;;31.03;12.63;;;;;;;15.41;95.83;96134.41;4966572;28;20189;-68
2023/10/26 04:33:17;;;;;;;30.50;13.03;;;;;;;15.38;95.67;96118.97;4968227;28;20727;-69
2023/10/26 04:35:46;;;;;;;29.90;13.07;;;;;;;15.74;94.87;96150.03;4965096;28;20263;-69
2023/10/26 04:38:16;;;;;;;30.27;13.53;;;;;;;15.90;92.90;96129.53;4968246;28;20773;-73
2023/10/26 04:40:43;;;;;;;24.37;12.27;;;;;;;16.08;91.64;96143.72;4949714;28;20200;-69
2023/10/26 04:43:11;;;;;;;26.47;11.60;;;;;;;16.22;90.64;96146.00;4968743;28;20196;-68
2023/10/26 04:45:39;;;;;;;27.23;10.70;;;;;;;16.22;89.74;96125.13;4965976;28;20199;-72
2023/10/26 04:48:07;;;;;;;27.27;12.90;;;;;;;16.50;89.12;96128.91;4968066;28;20815;-71
2023/10/26 04:50:34;;;;;;;31.13;14.10;;;;;;;16.46;89.27;96126.66;4950787;28;20196;-70
2023/10/26 04:53:02;;;;;;;26.70;12.87;;;;;;;16.47;88.72;96110.00;4966396;28;20656;-70
2023/10/26 04:55:33;;;;;;;29.30;11.53;;;;;;;16.42;88.54;96120.03;4973317;28;20684;-68
2023/10/26 04:58:02;;;;;;;25.93;10.67;;;;;;;16.42;88.20;96118.25;4986920;28;20275;-70
2023/10/26 05:00:30;;;;;;;27.10;11.67;;;;;;;16.58;87.69;96123.88;4970409;28;20270;-72
2023/10/26 05:02:58;;;;;;;27.97;11.97;;;;;;;16.62;87.23;96127.06;4987021;28;20198;-68
2023/10/26 05:05:26;;;;;;;21.77;11.60;;;;;;;16.66;87.45;96144.13;4970125;28;20201;-68
2023/10/26 05:07:54;;;;;;;27.50;12.97;;;;;;;16.79;87.05;96153.44;4987500;28;20232;-68
2023/10/26 05:10:21;;;;;;;24.03;12.37;;;;;;;16.63;86.63;96153.06;4987012;28;20205;-71
2023/10/26 05:12:48;;;;;;;28.40;12.93;;;;;;;16.67;86.61;96161.50;4969932;28;20197;-70
2023/10/26 05:15:16;;;;;;;26.33;12.43;;;;;;;16.83;86.81;96177.56;4986508;28;20192;-71
2023/10/26 05:17:43;;;;;;;26.40;13.03;;;;;;;16.95;85.73;96177.34;4987303;28;20219;-72
2023/10/26 05:20:13;;;;;;;24.00;12.00;;;;;;;16.88;86.05;96164.91;4986609;28;20190;-73
2023/10/26 05:22:40;;;;;;;26.80;12.87;;;;;;;16.80;85.49;96157.72;4953979;28;20530;-68
2023/10/26 05:25:10;;;;;;;29.90;12.63;;;;;;;16.68;86.22;96173.59;4969288;28;20201;-68
2023/10/26 05:27:38;;;;;;;29.37;13.27;;;;;;;16.50;86.93;96167.28;4986840;28;20244;-68
2023/10/26 05:30:06;;;;;;;28.50;11.27;;;;;;;16.49;87.61;96174.28;4970257;28;20216;-69
2023/10/26 05:32:33;;;;;;;29.63;11.90;;;;;;;16.55;86.15;96184.25;4968685;28;20255;-72
2023/10/26 05:35:01;;;;;;;28.10;11.37;;;;;;;16.38;86.84;96191.78;4970119;28;20629;-72
2023/10/26 05:37:29;;;;;;;32.37;12.73;;;;;;;15.99;87.58;96175.78;4969438;28;20193;-70
2023/10/26 05:39:57;;;;;;;23.13;11.27;;;;;;;15.78;89.22;96179.31;4969725;28;21000;-74
2023/10/26 05:42:24;;;;;;;26.87;11.83;;;;;;;15.64;89.95;96179.59;4986988;28;20285;-73
2023/10/26 05:44:56;;;;;;;25.93;10.50;;;;;;;15.67;90.40;96189.75;4986790;28;20277;-70
2023/10/26 05:47:23;;;;;;;32.60;12.70;;;;;;;15.77;89.89;96180.25;4969400;28;20624;-70
2023/10/26 05:49:51;;;;;;;21.00;11.23;;;;;;;15.67;89.00;96124.50;4986072;28;20766;-74
2023/10/26 05:52:19;;;;;;;29.47;12.07;;;;;;;15.60;90.30;96157.28;4987693;28;20265;-73
2023/10/26 05:54:46;;;;;;;27.33;11.50;;;;;;;15.50;91.24;96166.81;4986214;28;20187;-71
2023/10/26 05:57:14;;;;;;;26.90;11.37;;;;;;;15.64;91.55;96164.72;4986880;28;20307;-71
2023/10/26 05:59:43;;;;;;;20.17;10.83;;;;;;;15.93;90.40;96176.28;4986215;28;20210;-73
2023/10/26 06:02:10;;;;;;;24.87;11.87;;;;;;;16.03;89.52;96165.94;4952659;28;20202;-73
2023/10/26 06:04:37;;;;;;;23.47;10.37;;;;;;;16.20;88.76;96189.72;4987019;28;20256;-73
2023/10/26 06:07:05;;;;;;;22.67;11.03;;;;;;;16.15;89.41;96180.63;4986279;28;20224;-73
2023/10/26 06:09:32;;;;;;;26.30;10.67;;;;;;;16.15;89.53;96186.69;4970176;28;20191;-75
2023/10/26 06:12:01;;;;;;;20.50;10.37;;;;;;;16.14;89.71;96174.56;4968382;28;20554;-71
2023/10/26 06:14:28;;;;;;;28.17;11.50;;;;;;;16.22;89.30;96193.03;4972527;28;20749;-70
2023/10/26 06:16:57;;;;;;;31.20;10.30;;;;;;;16.33;88.17;96186.94;4970246;28;20681;-71
2023/10/26 06:19:25;;;;;;;31.00;11.70;;;;;;;16.71;87.81;96209.97;4986863;28;20682;-69
2023/10/26 06:21:55;;;;;;;25.17;10.87;;;;;;;16.84;86.48;96213.19;4969216;28;20220;-72
2023/10/26 06:24:23;;;;;;;30.43;11.10;;;;;;;16.90;85.63;96212.66;4953294;28;21004;-71
2023/10/26 06:26:50;;;;;;;23.97;9.97;;;;;;;16.88;85.98;96204.97;4969726;28;20227;-71
2023/10/26 06:29:19;;;;;;;27.63;10.77;;;;;;;16.99;84.97;96209.28;4967954;28;20255;-69
2023/10/26 06:31:47;;;;;;;24.33;11.07;;;;;;;16.79;86.11;96204.91;4987044;28;20205;-73
2023/10/26 06:34:14;;;;;;;32.93;11.77;;;;;;;16.67;87.22;96208.56;4985848;28;20196;-73
2023/10/26 06:36:41;;;;;;;21.37;9.70;;;;;;;16.63;87.21;96220.22;4970236;28;20185;-73
2023/10/26 06:39:09;;;;;;;23.90;10.87;;;;;;;16.34;88.26;96212.13;4972491;28;20596;-72
2023/10/26 06:41:38;;;;;;;26.43;10.73;;;;;;;16.00;90.32;96208.81;4972287;28;20686;-71
2023/10/26 06:44:10;;;;;;;26.47;9.93;;;;;;;15.97;91.78;96203.00;4972591;28;20208;-70
2023/10/26 06:46:38;;;;;;;26.00;9.10;;;;;;;16.08;92.62;96216.84;4971365;28;20199;-70
2023/10/26 06:49:05;;;;;;;26.00;10.57;;;;;;;16.10;92.78;96199.28;4971965;28;20257;-73
2023/10/26 06:51:55;;;;;;;32.60;10.20;;;;;;;16.12;92.96;96207.81;4956324;28;20226;-73
2023/10/26 06:54:23;;;;;;;22.20;9.83;;;;;;;16.15;92.64;96207.56;4971366;28;20189;-72
2023/10/26 06:56:55;;;;;;;27.97;9.97;;;;;;;16.19;92.67;96208.16;4971976;28;20236;-73
2023/10/26 06:59:24;;;;;;;22.17;10.57;;;;;;;16.33;91.84;96212.25;4988299;28;20649;-71
2023/10/26 07:01:51;;;;;;;20.93;9.47;;;;;;;16.35;91.89;96202.50;4972311;28;20595;-71
2023/10/26 07:04:36;;;;;;;28.43;9.67;;;;;;;16.50;91.17;96194.25;4988838;28;20200;-76
2023/10/26 07:07:31;;;;;;;27.37;9.23;;;;;;;16.58;91.30;96197.06;4988935;28;20234;-75
2023/10/26 07:10:03;;;;;;;22.40;8.90;;;;;;;16.64;90.18;96206.19;4972540;28;20188;-71
2023/10/26 07:12:30;;;;;;;23.83;8.47;;;;;;;16.65;89.95;96202.63;4988426;28;20211;-71
2023/10/26 07:14:59;;;;;;;24.53;8.53;;;;;;;16.83;89.70;96208.94;4972126;28;20204;-70
2023/10/26 07:17:29;;;;;;;24.30;9.17;;;;;;;17.01;88.91;96197.75;4971422;28;20290;-69
2023/10/26 07:19:57;;;;;;;20.67;7.50;;;;;;;17.37;86.76;96203.44;4971377;28;20219;-70
2023/10/26 07:22:25;;;;;;;21.60;7.87;;;;;;;17.63;85.36;96208.09;4989288;28;20280;-70
2023/10/26 07:24:54;;;;;;;25.13;8.07;;;;;;;17.97;83.09;96210.38;4971214;28;20354;-73
2023/10/26 07:27:21;;;;;;;19.63;7.57;;;;;;;18.33;82.04;96209.72;4989250;28;20230;-71
2023/10/26 07:29:49;;;;;;;20.27;7.47;;;;;;;18.63;80.07;96222.72;4970214;28;20218;-75
2023/10/26 07:32:16;;;;;;;28.73;8.60;;;;;;;18.76;79.46;96225.88;4989343;28;20226;-71
2023/10/26 07:34:46;;;;;;;29.23;8.83;;;;;;;18.76;79.43;96212.78;4970803;28;20213;-72
2023/10/26 07:37:16;;;;;;;35.77;8.97;;;;;;;19.01;78.59;96212.19;4971705;28;20677;-75
2023/10/26 07:39:44;;;;;;;33.00;9.93;;;;;;;18.79;78.22;96194.13;4988578;28;20198;-71
2023/10/26 07:42:34;;;;;;;32.07;10.47;;;;;;;19.14;77.53;96223.22;4969119;28;20649;-70
2023/10/26 07:45:06;;;;;;;34.03;9.20;;;;;;;19.20;77.14;96234.94;4988642;28;20227;-71
2023/10/26 07:47:34;;;;;;;35.90;10.80;;;;;;;19.05;76.71;96228.47;4954313;28;20223;-72
2023/10/26 07:50:01;;;;;;;29.33;9.23;;;;;;;18.97;77.09;96221.31;4954660;28;20286;-71
2023/10/26 07:52:31;;;;;;;27.27;8.70;;;;;;;19.05;77.24;96234.53;4970468;28;20257;-71
2023/10/26 07:55:04;;;;;;;25.47;10.70;;;;;;;19.03;77.28;96228.59;4987700;28;20254;-72
2023/10/26 07:57:32;;;;;;;33.17;9.27;;;;;;;19.15;77.21;96224.84;4988323;28;20212;-73
2023/10/26 08:00:01;;;;;;;28.77;9.20;;;;;;;19.12;77.35;96221.69;4954189;28;20198;-69
2023/10/26 08:02:39;;;;;;;24.03;9.17;;;;;;;19.02;77.33;96211.19;4975166;28;20187;-68
2023/10/26 08:05:09;;;;;;;26.20;9.10;;;;;;;19.26;77.89;96222.06;4987181;28;20199;-72
2023/10/26 08:07:37;;;;;;;33.37;12.30;;;;;;;19.35;77.41;96208.09;4970772;28;20216;-71
2023/10/26 08:10:07;;;;;;;30.73;10.57;;;;;;;19.26;77.27;96190.56;4953937;28;20205;-71
2023/10/26 08:12:34;;;;;;;39.87;14.70;;;;;;;19.34;77.26;96201.19;4987535;28;20206;-69
2023/10/26 08:15:02;;;;;;;20.53;9.47;;;;;;;19.44;76.94;96206.41;4988124;28;20283;-70
2023/10/26 08:17:56;;;;;;;27.73;8.80;;;;;;;19.27;78.32;96197.44;4987141;28;20194;-71
2023/10/26 08:20:24;;;;;;;27.23;8.73;;;;;;;19.06;79.26;96177.63;4987320;28;20229;-70
2023/10/26 08:22:52;;;;;;;24.47;8.87;;;;;;;19.25;78.31;96177.56;4970075;28;20559;-71
2023/10/26 08:25:21;;;;;;;30.70;9.23;;;;;;;19.28;78.96;96182.53;4986771;28;20222;-72
2023/10/26 08:27:52;;;;;;;22.67;9.03;;;;;;;19.35;78.78;96181.84;4987300;28;20241;-71
2023/10/26 08:30:20;;;;;;;28.73;8.73;;;;;;;19.63;77.88;96187.09;4987493;28;20180;-71
2023/10/26 08:32:49;;;;;;;28.37;8.50;;;;;;;19.84;76.96;96185.06;4986713;28;20298;-69
2023/10/26 08:35:19;;;;;;;29.10;8.73;;;;;;;20.00;75.68;96179.97;4986608;28;20281;-71
2023/10/26 08:37:46;;;;;;;39.33;11.13;;;;;;;20.18;75.05;96186.06;4985955;28;20203;-69
2023/10/26 08:40:14;;;;;;;31.93;9.90;;;;;;;20.08;74.94;96157.22;4985768;28;20191;-69
2023/10/26 08:42:45;;;;;;;26.40;9.27;;;;;;;20.31;74.84;96169.94;4987435;28;20203;-69
2023/10/26 08:45:24;;;;;;;28.83;10.47;;;;;;;20.51;73.68;96180.16;4987591;28;20242;-70
2023/10/26 08:47:52;;;;;;;22.07;8.73;;;;;;;20.43;73.55;96189.78;4986777;28;20224;-71
2023/10/26 08:50:22;;;;;;;30.60;9.30;;;;;;;20.53;73.67;96209.75;4987934;28;20204;-71
2023/10/26 08:52:51;;;;;;;31.53;9.50;;;;;;;20.50;73.49;96209.25;4986914;28;20193;-69
2023/10/26 08:55:20;;;;;;;31.93;11.97;;;;;;;20.60;72.69;96205.56;4987230;28;20326;-71
2023/10/26 08:57:50;;;;;;;38.10;12.80;;;;;;;20.59;73.01;96208.31;4986324;28;20498;-68
2023/10/26 09:00:24;;;;;;;32.77;11.50;;;;;;;20.78;71.96;96203.72;4985371;28;20196;-69
2023/10/26 09:02:51;;;;;;;33.37;12.17;;;;;;;20.94;70.99;96192.47;4984275;28;20297;-70
2023/10/26 09:05:22;;;;;;;34.83;11.77;;;;;;;21.30;69.84;96177.44;4986396;28;20193;-70
2023/10/26 09:07:53;;;;;;;31.87;11.50;;;;;;;21.20;69.06;96151.22;4985677;28;20619;-70
2023/10/26 09:10:33;;;;;;;27.93;11.40;;;;;;;21.38;69.16;96183.56;4984759;28;20179;-70
2023/10/26 09:13:06;;;;;;;35.13;12.67;;;;;;;21.43;68.67;96180.47;4985165;28;20214;-70
2023/10/26 09:15:48;;;;;;;24.87;10.17;;;;;;;21.40;68.54;96178.13;4969166;28;20196;-70
2023/10/26 09:18:16;;;;;;;26.93;9.43;;;;;;;21.34;68.91;96181.41;4984378;28;20263;-71
2023/10/26 09:21:01;;;;;;;37.27;11.57;;;;;;;21.30;68.65;96161.63;4985714;28;20227;-74
2023/10/26 09:23:30;;;;;;;26.70;9.83;;;;;;;21.31;68.19;96168.56;4985600;28;20214;-71
2023/10/26 09:26:04;;;;;;;27.67;9.63;;;;;;;21.39;68.36;96181.78;4984987;28;20248;-70
2023/10/26 09:28:54;;;;;;;29.37;9.37;;;;;;;21.37;68.10;96160.03;4953680;28;20233;-69
2023/10/26 09:31:24;;;;;;;26.77;10.13;;;;;;;21.17;68.42;96145.41;4985886;28;20221;-69
2023/10/26 09:33:51;;;;;;;33.03;10.53;;;;;;;21.49;68.21;96161.41;4986752;28;20271;-70
2023/10/26 09:36:22;;;;;;;31.77;10.03;;;;;;;21.10;68.97;96136.50;4984109;28;20228;-69
2023/10/26 09:38:57;;;;;;;29.00;10.80;;;;;;;21.29;68.98;96165.25;4986539;28;20196;-69
2023/10/26 09:41:25;;;;;;;26.33;11.17;;;;;;;21.32;68.79;96142.06;4969107;28;20203;-69
2023/10/26 09:43:53;;;;;;;38.47;11.63;;;;;;;21.35;68.79;96148.84;4984100;28;20567;-73
2023/10/26 09:46:21;;;;;;;29.67;9.93;;;;;;;21.49;68.59;96137.69;4986219;28;20203;-70
2023/10/26 09:48:49;;;;;;;36.17;10.70;;;;;;;21.43;68.19;96130.41;4980725;28;20225;-72
2023/10/26 09:51:18;;;;;;;26.90;10.10;;;;;;;21.35;67.74;96133.81;4985489;28;20294;-70
2023/10/26 09:53:48;;;;;;;35.60;10.80;;;;;;;21.63;67.74;96135.28;4985662;28;20259;-70
2023/10/26 09:56:23;;;;;;;24.33;10.20;;;;;;;21.52;67.69;96118.91;4986250;28;20248;-70
2023/10/26 09:58:52;;;;;;;28.83;9.00;;;;;;;21.83;67.69;96130.56;4984999;28;20283;-72
2023/10/26 10:01:34;;;;;;;30.03;11.03;;;;;;;21.86;67.17;96132.91;4985982;28;20193;-69
2023/10/26 10:04:04;;;;;;;29.80;9.83;;;;;;;21.88;66.56;96127.47;4969360;28;20697;-70
2023/10/26 10:06:54;;;;;;;30.87;9.80;;;;;;;21.89;66.51;96135.19;4983983;28;20671;-69
2023/10/26 10:09:25;;;;;;;21.07;8.50;;;;;;;21.91;66.44;96120.03;4986149;28;20227;-70
2023/10/26 10:12:08;;;;;;;31.27;8.57;;;;;;;21.80;66.95;96125.59;4987822;28;20189;-72
2023/10/26 10:14:48;;;;;;;27.20;8.33;;;;;;;21.79;65.31;96123.94;4988140;28;20187;-71
2023/10/26 10:17:17;;;;;;;22.40;8.10;;;;;;;21.84;65.62;96129.59;4990542;28;20198;-70
2023/10/26 10:19:46;;;;;;;27.93;7.03;;;;;;;21.63;65.56;96131.81;4989203;28;20244;-70
2023/10/26 10:22:38;;;;;;;21.77;7.40;;;;;;;21.70;65.52;96117.00;4990142;28;20194;-71
2023/10/26 10:25:09;;;;;;;25.13;7.43;;;;;;;21.83;66.01;96125.31;4989915;28;20193;-70
2023/10/26 10:27:41;;;;;;;27.03;7.77;;;;;;;21.90;65.90;96128.13;4987445;28;20193;-70
2023/10/26 10:30:11;;;;;;;29.13;8.93;;;;;;;21.74;65.59;96086.72;4990300;28;20984;-76
2023/10/26 10:32:46;;;;;;;29.33;8.83;;;;;;;22.00;66.34;96120.88;4989141;28;20229;-74
2023/10/26 10:35:35;;;;;;;26.53;8.80;;;;;;;22.02;66.43;96111.00;4990016;28;20232;-75
2023/10/26 10:38:15;;;;;;;27.47;9.53;;;;;;;22.02;66.18;96108.38;4988228;28;20655;-73
2023/10/26 10:40:57;;;;;;;32.70;9.50;;;;;;;22.16;65.51;96102.44;4988838;28;20209;-69
2023/10/26 10:43:43;;;;;;;31.87;11.47;;;;;;;22.09;65.62;96096.97;4988212;28;20202;-70
2023/10/26 10:46:28;;;;;;;27.63;8.97;;;;;;;21.77;65.23;96084.56;4988536;28;20201;-70
2023/10/26 10:49:00;;;;;;;27.17;10.20;;;;;;;21.87;64.70;96073.91;4989229;28;20247;-71
2023/10/26 10:51:41;;;;;;;21.03;8.77;;;;;;;21.62;65.34;96058.97;4971761;28;20233;-68
2023/10/26 10:54:12;;;;;;;27.20;9.33;;;;;;;21.66;65.66;96057.69;4988516;28;20740;-69
2023/10/26 10:57:06;;;;;;;26.30;9.70;;;;;;;21.63;65.36;96047.47;4988157;28;20237;-70
2023/10/26 10:59:33;;;;;;;23.10;8.70;;;;;;;21.58;65.23;96040.06;4987885;28;20199;-70
2023/10/26 11:02:13;;;;;;;28.27;9.63;;;;;;;21.92;64.37;96049.69;4987205;28;20286;-71
2023/10/26 11:04:58;;;;;;;31.73;10.33;;;;;;;22.10;63.95;96038.00;4989649;28;20214;-70
2023/10/26 11:07:31;;;;;;;23.60;8.80;;;;;;;22.20;63.63;96048.38;4969784;28;20659;-71
2023/10/26 11:10:00;;;;;;;24.63;9.40;;;;;;;22.46;63.08;96041.91;4972237;28;20198;-69
2023/10/26 11:12:33;;;;;;;19.30;8.00;;;;;;;22.51;61.54;96039.59;4988970;28;20257;-71
2023/10/26 11:15:01;;;;;;;20.97;7.87;;;;;;;22.54;61.63;96044.56;4988445;28;20260;-73
2023/10/26 11:17:34;;;;;;;22.17;7.60;;;;;;;22.64;61.58;96045.22;4989484;28;20612;-72
2023/10/26 11:20:03;;;;;;;25.10;8.50;;;;;;;22.80;60.90;96032.97;4970451;28;20198;-74
2023/10/26 11:22:31;;;;;;;21.73;7.23;;;;;;;22.81;60.49;96026.69;4971389;28;20182;-71
2023/10/26 11:25:00;;;;;;;16.97;8.30;;;;;;;22.83;59.85;96024.72;4987966;28;20191;-73
2023/10/26 11:27:35;;;;;;;25.50;8.47;;;;;;;22.71;59.96;96007.59;4987330;28;20878;-72
2023/10/26 11:30:06;;;;;;;27.63;9.77;;;;;;;22.87;59.56;96023.38;4988459;28;20204;-69
2023/10/26 11:32:34;;;;;;;24.90;8.83;;;;;;;22.76;59.54;96005.25;4986288;28;20298;-70